createdAt,value
2023-02-27T00:04:54.471Z,4.44
2023-02-27T00:11:56.039Z,4.44
2023-02-27T00:19:01.135Z,4.35
2023-02-27T00:26:02.822Z,4.32
2023-02-27T00:33:04.485Z,4.25
2023-02-27T00:40:08.537Z,4.22
2023-02-27T00:47:10.120Z,4.26
2023-02-27T00:54:14.423Z,4.20
2023-02-27T01:01:16.140Z,4.16
2023-02-27T01:08:27.202Z,4.17
2023-02-27T01:15:28.879Z,4.13
2023-02-27T01:22:30.668Z,4.09
2023-02-27T01:29:32.281Z,4.03
2023-02-27T01:36:33.824Z,4.07
2023-02-27T01:43:55.625Z,4.03
2023-02-27T01:51:15.344Z,4.00
2023-02-27T01:58:17.069Z,3.88
2023-02-27T02:05:19.287Z,3.78
2023-02-27T02:12:22.513Z,3.83
2023-02-27T02:19:39.318Z,3.93
2023-02-27T02:27:03.717Z,3.87
2023-02-27T02:34:39.955Z,3.69
2023-02-27T02:41:53.769Z,3.78
2023-02-27T02:49:10.758Z,3.79
2023-02-27T02:56:18.370Z,3.77
2023-02-27T03:04:19.058Z,3.82
2023-02-27T03:11:22.329Z,3.82
2023-02-27T03:18:27.211Z,3.76
2023-02-27T03:25:28.882Z,3.69
2023-02-27T03:32:49.302Z,3.74
2023-02-27T03:40:35.509Z,3.66
2023-02-27T03:47:41.093Z,3.53
2023-02-27T03:54:54.018Z,3.48
2023-02-27T04:01:55.878Z,3.40
2023-02-27T04:09:11.364Z,3.30
2023-02-27T04:16:31.338Z,3.40
2023-02-27T04:23:33.098Z,3.34
2023-02-27T04:30:54.779Z,3.24
2023-02-27T04:38:02.618Z,3.23
2023-02-27T04:45:06.265Z,3.28
2023-02-27T04:52:22.417Z,3.30
2023-02-27T04:59:36.091Z,3.25
2023-02-27T05:06:38.294Z,3.26
2023-02-27T05:13:49.235Z,3.17
2023-02-27T05:21:05.942Z,3.20
2023-02-27T05:28:10.637Z,3.15
2023-02-27T05:35:30.910Z,3.14
2023-02-27T05:42:35.755Z,3.08
2023-02-27T05:49:42.435Z,3.12
2023-02-27T05:56:44.025Z,3.12
2023-02-27T06:03:45.660Z,3.14
2023-02-27T06:10:48.649Z,3.14
2023-02-27T06:17:50.317Z,3.13
2023-02-27T06:24:51.882Z,3.08
2023-02-27T06:31:53.637Z,3.17
2023-02-27T06:38:55.427Z,3.17
2023-02-27T06:45:57.405Z,3.54
2023-02-27T06:52:59.060Z,3.42
2023-02-27T07:00:00.587Z,3.43
2023-02-27T07:07:36.065Z,3.67
2023-02-27T07:14:23.676Z,3.78
2023-02-27T07:21:25.383Z,3.82
2023-02-27T07:28:27.306Z,3.88
2023-02-27T07:35:28.935Z,3.79
2023-02-27T07:42:30.535Z,3.88
2023-02-27T07:49:32.065Z,3.88
2023-02-27T07:56:34.178Z,3.98
2023-02-27T08:03:35.783Z,4.10
2023-02-27T08:10:37.318Z,4.19
2023-02-27T08:17:38.885Z,4.43
2023-02-27T08:24:40.513Z,4.56
2023-02-27T08:31:42.112Z,4.80
2023-02-27T08:38:43.739Z,5.07
2023-02-27T08:45:47.074Z,5.22
2023-02-27T08:52:51.190Z,5.27
2023-02-27T08:59:52.741Z,5.60
2023-02-27T09:06:54.348Z,6.16
2023-02-27T09:13:55.977Z,6.44
2023-02-27T09:20:57.581Z,6.21
2023-02-27T09:27:59.148Z,6.43
2023-02-27T09:35:00.793Z,6.27
2023-02-27T09:42:06.977Z,6.42
2023-02-27T09:49:09.578Z,6.47
2023-02-27T09:56:21.375Z,6.68
2023-02-27T10:03:58.422Z,6.68
2023-02-27T10:11:02.447Z,7.06
2023-02-27T10:18:25.378Z,7.18
2023-02-27T10:25:32.053Z,7.61
2023-02-27T10:32:34.229Z,8.57
2023-02-27T10:39:55.129Z,8.43
2023-02-27T10:46:56.712Z,8.34
2023-02-27T10:54:20.348Z,8.22
2023-02-27T11:01:22.366Z,8.81
2023-02-27T11:08:28.962Z,8.83
2023-02-27T11:15:35.384Z,8.95
2023-02-27T11:22:36.974Z,9.66
2023-02-27T11:29:39.025Z,9.52
2023-02-27T11:36:41.880Z,9.02
2023-02-27T11:43:50.722Z,9.15
2023-02-27T11:50:58.236Z,9.25
2023-02-27T11:58:12.029Z,9.30
2023-02-27T12:05:32.381Z,9.67
2023-02-27T12:12:50.739Z,9.21
2023-02-27T12:20:00.908Z,9.29
2023-02-27T12:27:16.458Z,9.13
2023-02-27T12:34:35.693Z,8.93
2023-02-27T12:42:04.680Z,8.95
2023-02-27T12:49:30.570Z,8.71
2023-02-27T12:57:04.238Z,8.62
2023-02-27T13:04:23.732Z,9.00
2023-02-27T13:11:44.456Z,8.61
2023-02-27T13:18:56.417Z,8.12
2023-02-27T13:25:58.050Z,8.31
2023-02-27T13:33:14.725Z,8.62
2023-02-27T13:40:38.598Z,8.59
2023-02-27T13:47:41.995Z,8.81
2023-02-27T13:54:43.641Z,9.23
2023-02-27T14:02:16.759Z,8.84
2023-02-27T14:09:20.821Z,8.67
2023-02-27T14:16:37.707Z,8.94
2023-02-27T14:23:39.267Z,9.27
2023-02-27T14:31:06.091Z,8.83
2023-02-27T14:38:09.777Z,7.97
2023-02-27T14:45:17.296Z,8.33
2023-02-27T14:52:25.428Z,8.42
2023-02-27T14:59:33.292Z,8.54
2023-02-27T15:06:37.113Z,8.02
2023-02-27T15:13:39.181Z,7.99
2023-02-27T15:20:40.703Z,7.82
2023-02-27T15:27:42.362Z,7.89
2023-02-27T15:34:44.059Z,8.35
2023-02-27T15:41:56.014Z,8.34
2023-02-27T15:48:57.639Z,8.26
2023-02-27T15:56:00.886Z,8.10
2023-02-27T16:03:03.262Z,7.95
2023-02-27T16:10:08.045Z,8.08
2023-02-27T16:17:51.908Z,8.15
2023-02-27T16:24:54.471Z,7.93
2023-02-27T16:31:56.412Z,8.13
2023-02-27T16:38:58.035Z,7.99
2023-02-27T16:45:59.627Z,7.85
2023-02-27T16:53:01.255Z,7.86
2023-02-27T17:00:07.417Z,7.72
2023-02-27T17:07:12.313Z,7.95
2023-02-27T17:14:13.916Z,7.91
2023-02-27T17:21:15.525Z,8.02
2023-02-27T17:28:17.118Z,8.03
2023-02-27T17:35:18.676Z,7.88
2023-02-27T17:42:20.296Z,7.80
2023-02-27T17:49:22.267Z,7.95
2023-02-27T17:56:24.139Z,7.92
2023-02-27T18:03:25.737Z,7.86
2023-02-27T18:10:27.297Z,7.78
2023-02-27T18:17:28.856Z,7.64
2023-02-27T18:24:30.441Z,7.62
2023-02-27T18:31:34.244Z,7.70
2023-02-27T18:38:35.846Z,7.70
2023-02-27T18:45:37.457Z,7.53
2023-02-27T18:52:39.042Z,7.58
2023-02-27T18:59:41.460Z,7.56
2023-02-27T19:06:43.130Z,7.42
2023-02-27T19:13:44.816Z,7.42
2023-02-27T19:20:46.424Z,7.32
2023-02-27T19:27:53.623Z,7.31
2023-02-27T19:34:55.147Z,7.34
2023-02-27T19:41:56.676Z,7.34
2023-02-27T19:49:00.186Z,7.24
2023-02-27T19:56:06.618Z,7.18
2023-02-27T20:03:08.207Z,7.15
2023-02-27T20:10:10.778Z,7.15
2023-02-27T20:17:12.597Z,7.12
2023-02-27T20:24:14.610Z,7.00
2023-02-27T20:31:16.663Z,6.99
2023-02-27T20:38:19.854Z,7.00
2023-02-27T20:45:21.503Z,7.06
2023-02-27T20:52:23.161Z,7.02
2023-02-27T20:59:25.491Z,7.03
2023-02-27T21:06:27.086Z,6.90
2023-02-27T21:13:28.733Z,6.73
2023-02-27T21:20:30.606Z,6.65
2023-02-27T21:27:33.262Z,6.67
2023-02-27T21:34:35.004Z,6.49
2023-02-27T21:41:36.646Z,6.39
2023-02-27T21:48:38.292Z,6.27
2023-02-27T21:55:39.890Z,6.56
2023-02-27T22:02:41.570Z,6.55
2023-02-27T22:09:43.230Z,6.38
2023-02-27T22:16:44.840Z,6.60
2023-02-27T22:23:46.537Z,6.61
2023-02-27T22:30:49.158Z,6.74
2023-02-27T22:37:50.906Z,6.53
2023-02-27T22:44:52.527Z,6.46
2023-02-27T22:51:54.323Z,6.49
2023-02-27T22:58:55.866Z,6.60
2023-02-27T23:05:57.458Z,6.55
2023-02-27T23:12:59.036Z,6.60
2023-02-27T23:20:00.581Z,6.52
2023-02-27T23:27:19.594Z,6.42
2023-02-27T23:34:26.617Z,6.43
2023-02-27T23:41:28.463Z,6.40
2023-02-27T23:48:30.205Z,6.39
2023-02-27T23:55:33.358Z,6.48
